sensor_id;sensor_type;location;lat;lon;timestamp;P1;durP1;ratioP1;P2;durP2;ratioP2
5758;SDS011;2904;48.788;9.196;2022-09-01T00:01:27;28.10;;;20.48;;
5758;SDS011;2904;48.788;9.196;2022-09-01T00:03:54;27.45;;;20.33;;
5758;SDS011;2904;48.788;9.196;2022-09-01T00:06:22;28.27;;;19.75;;
5758;SDS011;2904;48.788;9.196;2022-09-01T00:08:49;25.12;;;19.45;;
5758;SDS011;2904;48.788;9.196;2022-09-01T00:11:16;27.98;;;20.90;;
5758;SDS011;2904;48.788;9.196;2022-09-01T00:13:42;24.08;;;18.83;;
5758;SDS011;2904;48.788;9.196;2022-09-01T00:16:08;24.70;;;19.30;;
5758;SDS011;2904;48.788;9.196;2022-09-01T00:18:36;26.58;;;19.02;;
5758;SDS011;2904;48.788;9.196;2022-09-01T00:21:01;26.33;;;19.15;;
5758;SDS011;2904;48.788;9.196;2022-09-01T00:23:27;24.25;;;18.35;;
5758;SDS011;2904;48.788;9.196;2022-09-01T00:25:53;25.90;;;19.17;;
5758;SDS011;2904;48.788;9.196;2022-09-01T00:28:20;25.35;;;18.75;;
5758;SDS011;2904;48.788;9.196;2022-09-01T00:30:46;31.87;;;19.08;;
5758;SDS011;2904;48.788;9.196;2022-09-01T00:33:11;29.80;;;18.33;;
5758;SDS011;2904;48.788;9.196;2022-09-01T00:35:37;26.87;;;19.20;;
5758;SDS011;2904;48.788;9.196;2022-09-01T00:38:03;27.98;;;19.35;;
5758;SDS011;2904;48.788;9.196;2022-09-01T00:40:28;25.10;;;18.73;;
5758;SDS011;2904;48.788;9.196;2022-09-01T00:42:55;24.55;;;18.98;;
5758;SDS011;2904;48.788;9.196;2022-09-01T00:45:20;26.08;;;19.27;;
5758;SDS011;2904;48.788;9.196;2022-09-01T00:47:47;29.55;;;20.17;;
5758;SDS011;2904;48.788;9.196;2022-09-01T00:50:14;24.10;;;18.73;;
5758;SDS011;2904;48.788;9.196;2022-09-01T00:52:49;27.00;;;19.42;;
5758;SDS011;2904;48.788;9.196;2022-09-01T00:55:26;26.73;;;19.67;;
5758;SDS011;2904;48.788;9.196;2022-09-01T00:57:54;26.17;;;19.83;;
5758;SDS011;2904;48.788;9.196;2022-09-01T01:00:22;26.52;;;20.67;;
5758;SDS011;2904;48.788;9.196;2022-09-01T01:02:51;28.70;;;20.70;;
5758;SDS011;2904;48.788;9.196;2022-09-01T01:05:20;24.42;;;19.83;;
5758;SDS011;2904;48.788;9.196;2022-09-01T01:07:54;28.23;;;19.60;;
5758;SDS011;2904;48.788;9.196;2022-09-01T01:10:21;31.12;;;20.90;;
5758;SDS011;2904;48.788;9.196;2022-09-01T01:12:50;28.02;;;19.73;;
5758;SDS011;2904;48.788;9.196;2022-09-01T01:15:17;28.70;;;20.50;;
5758;SDS011;2904;48.788;9.196;2022-09-01T01:17:43;27.58;;;18.95;;
5758;SDS011;2904;48.788;9.196;2022-09-01T01:20:09;26.20;;;20.20;;
5758;SDS011;2904;48.788;9.196;2022-09-01T01:24:20;30.12;;;19.65;;
5758;SDS011;2904;48.788;9.196;2022-09-01T01:26:53;27.17;;;20.37;;
5758;SDS011;2904;48.788;9.196;2022-09-01T01:29:24;30.52;;;20.98;;
5758;SDS011;2904;48.788;9.196;2022-09-01T01:31:52;26.75;;;20.60;;
5758;SDS011;2904;48.788;9.196;2022-09-01T01:34:18;26.12;;;19.62;;
5758;SDS011;2904;48.788;9.196;2022-09-01T01:36:45;30.17;;;21.17;;
5758;SDS011;2904;48.788;9.196;2022-09-01T01:39:13;28.20;;;21.05;;
5758;SDS011;2904;48.788;9.196;2022-09-01T01:41:42;30.98;;;22.27;;
5758;SDS011;2904;48.788;9.196;2022-09-01T01:44:12;30.25;;;21.60;;
5758;SDS011;2904;48.788;9.196;2022-09-01T01:46:42;32.05;;;21.55;;
5758;SDS011;2904;48.788;9.196;2022-09-01T01:49:10;31.23;;;21.85;;
5758;SDS011;2904;48.788;9.196;2022-09-01T01:51:43;32.03;;;22.17;;
5758;SDS011;2904;48.788;9.196;2022-09-01T01:54:09;29.85;;;22.25;;
5758;SDS011;2904;48.788;9.196;2022-09-01T01:56:35;28.67;;;20.62;;
5758;SDS011;2904;48.788;9.196;2022-09-01T01:59:03;29.77;;;21.52;;
5758;SDS011;2904;48.788;9.196;2022-09-01T02:01:31;31.23;;;21.80;;
5758;SDS011;2904;48.788;9.196;2022-09-01T02:03:58;26.73;;;20.40;;
5758;SDS011;2904;48.788;9.196;2022-09-01T02:06:24;33.53;;;20.80;;
5758;SDS011;2904;48.788;9.196;2022-09-01T02:08:51;28.58;;;20.20;;
5758;SDS011;2904;48.788;9.196;2022-09-01T02:11:21;28.02;;;20.83;;
5758;SDS011;2904;48.788;9.196;2022-09-01T02:13:47;28.77;;;20.15;;
5758;SDS011;2904;48.788;9.196;2022-09-01T02:16:13;26.65;;;19.58;;
5758;SDS011;2904;48.788;9.196;2022-09-01T02:18:44;27.27;;;19.90;;
5758;SDS011;2904;48.788;9.196;2022-09-01T02:21:12;24.77;;;19.20;;
5758;SDS011;2904;48.788;9.196;2022-09-01T02:23:44;26.85;;;19.23;;
5758;SDS011;2904;48.788;9.196;2022-09-01T02:26:12;29.12;;;20.85;;
5758;SDS011;2904;48.788;9.196;2022-09-01T02:28:38;28.95;;;20.00;;
5758;SDS011;2904;48.788;9.196;2022-09-01T02:31:06;26.27;;;19.92;;
5758;SDS011;2904;48.788;9.196;2022-09-01T02:33:34;28.27;;;21.90;;
5758;SDS011;2904;48.788;9.196;2022-09-01T02:36:02;31.17;;;20.48;;
5758;SDS011;2904;48.788;9.196;2022-09-01T02:38:31;24.05;;;19.20;;
5758;SDS011;2904;48.788;9.196;2022-09-01T02:40:59;27.33;;;19.23;;
5758;SDS011;2904;48.788;9.196;2022-09-01T02:43:27;24.55;;;19.42;;
5758;SDS011;2904;48.788;9.196;2022-09-01T02:45:56;25.27;;;19.15;;
5758;SDS011;2904;48.788;9.196;2022-09-01T02:48:25;27.87;;;19.58;;
5758;SDS011;2904;48.788;9.196;2022-09-01T02:50:56;24.20;;;19.65;;
5758;SDS011;2904;48.788;9.196;2022-09-01T02:53:23;27.73;;;18.67;;
5758;SDS011;2904;48.788;9.196;2022-09-01T02:55:49;24.17;;;18.67;;
5758;SDS011;2904;48.788;9.196;2022-09-01T02:58:15;26.52;;;19.17;;
5758;SDS011;2904;48.788;9.196;2022-09-01T03:00:44;25.65;;;19.70;;
5758;SDS011;2904;48.788;9.196;2022-09-01T03:03:11;26.10;;;18.85;;
5758;SDS011;2904;48.788;9.196;2022-09-01T03:05:37;24.75;;;19.33;;
5758;SDS011;2904;48.788;9.196;2022-09-01T03:08:04;28.30;;;20.37;;
5758;SDS011;2904;48.788;9.196;2022-09-01T03:10:35;27.23;;;19.77;;
5758;SDS011;2904;48.788;9.196;2022-09-01T03:13:13;29.17;;;20.00;;
5758;SDS011;2904;48.788;9.196;2022-09-01T03:15:41;26.42;;;19.25;;
5758;SDS011;2904;48.788;9.196;2022-09-01T03:18:08;25.15;;;18.95;;
5758;SDS011;2904;48.788;9.196;2022-09-01T03:20:36;28.77;;;20.05;;
5758;SDS011;2904;48.788;9.196;2022-09-01T03:23:07;24.40;;;18.98;;
5758;SDS011;2904;48.788;9.196;2022-09-01T03:25:36;27.37;;;19.90;;
5758;SDS011;2904;48.788;9.196;2022-09-01T03:28:02;30.80;;;20.27;;
5758;SDS011;2904;48.788;9.196;2022-09-01T03:30:30;26.92;;;19.25;;
5758;SDS011;2904;48.788;9.196;2022-09-01T03:32:57;26.27;;;19.42;;
5758;SDS011;2904;48.788;9.196;2022-09-01T03:35:24;28.30;;;19.60;;
5758;SDS011;2904;48.788;9.196;2022-09-01T03:37:55;26.37;;;19.95;;
5758;SDS011;2904;48.788;9.196;2022-09-01T03:40:23;26.05;;;19.65;;
5758;SDS011;2904;48.788;9.196;2022-09-01T03:42:52;29.92;;;19.27;;
5758;SDS011;2904;48.788;9.196;2022-09-01T03:45:19;26.55;;;18.95;;
5758;SDS011;2904;48.788;9.196;2022-09-01T03:47:45;24.85;;;17.77;;
5758;SDS011;2904;48.788;9.196;2022-09-01T03:50:14;23.00;;;18.55;;
5758;SDS011;2904;48.788;9.196;2022-09-01T03:52:48;25.92;;;18.23;;
5758;SDS011;2904;48.788;9.196;2022-09-01T03:55:28;22.98;;;17.17;;
5758;SDS011;2904;48.788;9.196;2022-09-01T03:57:57;22.08;;;17.20;;
5758;SDS011;2904;48.788;9.196;2022-09-01T04:00:27;22.50;;;17.40;;
5758;SDS011;2904;48.788;9.196;2022-09-01T04:02:55;22.55;;;16.95;;
5758;SDS011;2904;48.788;9.196;2022-09-01T04:05:26;23.38;;;17.75;;
5758;SDS011;2904;48.788;9.196;2022-09-01T04:07:54;24.83;;;17.85;;
5758;SDS011;2904;48.788;9.196;2022-09-01T04:10:21;23.95;;;18.00;;
5758;SDS011;2904;48.788;9.196;2022-09-01T04:12:49;24.83;;;17.77;;
5758;SDS011;2904;48.788;9.196;2022-09-01T04:15:15;23.92;;;18.17;;
5758;SDS011;2904;48.788;9.196;2022-09-01T04:17:45;24.63;;;18.85;;
5758;SDS011;2904;48.788;9.196;2022-09-01T04:20:34;26.20;;;18.90;;
5758;SDS011;2904;48.788;9.196;2022-09-01T04:23:12;25.70;;;19.00;;
5758;SDS011;2904;48.788;9.196;2022-09-01T04:25:44;24.55;;;17.83;;
5758;SDS011;2904;48.788;9.196;2022-09-01T04:28:13;28.00;;;18.80;;
5758;SDS011;2904;48.788;9.196;2022-09-01T04:30:47;25.83;;;19.00;;
5758;SDS011;2904;48.788;9.196;2022-09-01T04:33:14;25.00;;;19.37;;
5758;SDS011;2904;48.788;9.196;2022-09-01T04:35:41;28.65;;;19.60;;
5758;SDS011;2904;48.788;9.196;2022-09-01T04:38:07;26.15;;;18.55;;
5758;SDS011;2904;48.788;9.196;2022-09-01T04:40:37;25.05;;;17.52;;
5758;SDS011;2904;48.788;9.196;2022-09-01T04:43:03;24.80;;;18.25;;
5758;SDS011;2904;48.788;9.196;2022-09-01T04:45:30;27.48;;;18.35;;
5758;SDS011;2904;48.788;9.196;2022-09-01T04:47:56;27.13;;;19.33;;
5758;SDS011;2904;48.788;9.196;2022-09-01T04:50:24;25.12;;;18.58;;
5758;SDS011;2904;48.788;9.196;2022-09-01T04:52:56;27.73;;;18.33;;
5758;SDS011;2904;48.788;9.196;2022-09-01T04:55:25;27.52;;;20.15;;
5758;SDS011;2904;48.788;9.196;2022-09-01T04:57:54;28.75;;;19.15;;
5758;SDS011;2904;48.788;9.196;2022-09-01T05:00:22;24.67;;;19.50;;
5758;SDS011;2904;48.788;9.196;2022-09-01T05:02:50;25.58;;;20.37;;
5758;SDS011;2904;48.788;9.196;2022-09-01T05:05:19;24.80;;;20.00;;
5758;SDS011;2904;48.788;9.196;2022-09-01T05:07:47;28.42;;;20.48;;
5758;SDS011;2904;48.788;9.196;2022-09-01T05:10:19;29.35;;;20.17;;
5758;SDS011;2904;48.788;9.196;2022-09-01T05:12:46;27.05;;;19.75;;
5758;SDS011;2904;48.788;9.196;2022-09-01T05:15:13;28.87;;;19.52;;
5758;SDS011;2904;48.788;9.196;2022-09-01T05:17:41;26.92;;;19.95;;
5758;SDS011;2904;48.788;9.196;2022-09-01T05:20:08;27.10;;;19.75;;
5758;SDS011;2904;48.788;9.196;2022-09-01T05:22:36;30.60;;;19.95;;
5758;SDS011;2904;48.788;9.196;2022-09-01T05:25:05;28.50;;;19.05;;
5758;SDS011;2904;48.788;9.196;2022-09-01T05:27:37;28.15;;;20.30;;
5758;SDS011;2904;48.788;9.196;2022-09-01T05:30:13;31.42;;;19.10;;
5758;SDS011;2904;48.788;9.196;2022-09-01T05:32:41;26.58;;;18.73;;
5758;SDS011;2904;48.788;9.196;2022-09-01T05:35:07;26.55;;;18.52;;
5758;SDS011;2904;48.788;9.196;2022-09-01T05:37:36;29.77;;;19.95;;
5758;SDS011;2904;48.788;9.196;2022-09-01T05:40:03;28.75;;;18.60;;
5758;SDS011;2904;48.788;9.196;2022-09-01T05:42:30;27.67;;;19.15;;
5758;SDS011;2904;48.788;9.196;2022-09-01T05:44:56;23.60;;;17.12;;
5758;SDS011;2904;48.788;9.196;2022-09-01T05:47:22;22.85;;;17.58;;
5758;SDS011;2904;48.788;9.196;2022-09-01T05:49:50;25.30;;;17.90;;
5758;SDS011;2904;48.788;9.196;2022-09-01T05:52:18;28.65;;;18.37;;
5758;SDS011;2904;48.788;9.196;2022-09-01T05:54:50;25.62;;;17.20;;
5758;SDS011;2904;48.788;9.196;2022-09-01T05:57:17;27.25;;;19.30;;
5758;SDS011;2904;48.788;9.196;2022-09-01T05:59:43;29.27;;;19.15;;
5758;SDS011;2904;48.788;9.196;2022-09-01T06:02:10;23.05;;;17.87;;
5758;SDS011;2904;48.788;9.196;2022-09-01T06:04:37;30.05;;;18.30;;
5758;SDS011;2904;48.788;9.196;2022-09-01T06:07:10;24.80;;;18.12;;
5758;SDS011;2904;48.788;9.196;2022-09-01T06:09:39;28.85;;;17.20;;
5758;SDS011;2904;48.788;9.196;2022-09-01T06:12:06;20.73;;;16.85;;
5758;SDS011;2904;48.788;9.196;2022-09-01T06:14:33;26.77;;;17.92;;
5758;SDS011;2904;48.788;9.196;2022-09-01T06:16:59;25.88;;;17.58;;
5758;SDS011;2904;48.788;9.196;2022-09-01T06:19:25;24.65;;;16.52;;
5758;SDS011;2904;48.788;9.196;2022-09-01T06:21:50;22.85;;;16.00;;
5758;SDS011;2904;48.788;9.196;2022-09-01T06:24:17;22.58;;;15.35;;
5758;SDS011;2904;48.788;9.196;2022-09-01T06:26:42;26.52;;;17.00;;
5758;SDS011;2904;48.788;9.196;2022-09-01T06:29:10;22.58;;;16.48;;
5758;SDS011;2904;48.788;9.196;2022-09-01T06:31:39;20.33;;;16.08;;
5758;SDS011;2904;48.788;9.196;2022-09-01T06:34:06;21.08;;;15.85;;
5758;SDS011;2904;48.788;9.196;2022-09-01T06:36:37;22.37;;;15.80;;
5758;SDS011;2904;48.788;9.196;2022-09-01T06:39:05;20.65;;;16.58;;
5758;SDS011;2904;48.788;9.196;2022-09-01T06:41:32;22.17;;;17.30;;
5758;SDS011;2904;48.788;9.196;2022-09-01T06:43:58;23.83;;;16.02;;
5758;SDS011;2904;48.788;9.196;2022-09-01T06:46:25;21.37;;;16.02;;
5758;SDS011;2904;48.788;9.196;2022-09-01T06:48:53;25.62;;;16.83;;
5758;SDS011;2904;48.788;9.196;2022-09-01T06:51:22;23.00;;;15.43;;
5758;SDS011;2904;48.788;9.196;2022-09-01T06:53:50;18.85;;;14.75;;
5758;SDS011;2904;48.788;9.196;2022-09-01T06:56:24;21.60;;;15.20;;
5758;SDS011;2904;48.788;9.196;2022-09-01T06:58:54;22.23;;;14.73;;
5758;SDS011;2904;48.788;9.196;2022-09-01T07:01:20;23.85;;;15.05;;
5758;SDS011;2904;48.788;9.196;2022-09-01T07:03:48;21.08;;;14.55;;
5758;SDS011;2904;48.788;9.196;2022-09-01T07:06:16;21.37;;;14.93;;
5758;SDS011;2904;48.788;9.196;2022-09-01T07:08:43;19.40;;;14.20;;
5758;SDS011;2904;48.788;9.196;2022-09-01T07:11:17;18.67;;;14.63;;
5758;SDS011;2904;48.788;9.196;2022-09-01T07:13:50;19.70;;;15.18;;
5758;SDS011;2904;48.788;9.196;2022-09-01T07:16:20;21.75;;;14.40;;
5758;SDS011;2904;48.788;9.196;2022-09-01T07:18:48;18.20;;;14.02;;
5758;SDS011;2904;48.788;9.196;2022-09-01T07:21:15;18.77;;;14.43;;
5758;SDS011;2904;48.788;9.196;2022-09-01T07:23:42;19.23;;;14.18;;
5758;SDS011;2904;48.788;9.196;2022-09-01T07:26:08;20.17;;;14.32;;
5758;SDS011;2904;48.788;9.196;2022-09-01T07:28:34;17.05;;;12.80;;
5758;SDS011;2904;48.788;9.196;2022-09-01T07:31:00;17.42;;;12.32;;
5758;SDS011;2904;48.788;9.196;2022-09-01T07:33:28;15.95;;;12.73;;
5758;SDS011;2904;48.788;9.196;2022-09-01T07:35:55;14.93;;;12.37;;
5758;SDS011;2904;48.788;9.196;2022-09-01T07:38:22;16.40;;;12.90;;
5758;SDS011;2904;48.788;9.196;2022-09-01T07:40:49;16.12;;;12.77;;
5758;SDS011;2904;48.788;9.196;2022-09-01T07:43:18;16.00;;;12.02;;
5758;SDS011;2904;48.788;9.196;2022-09-01T07:45:48;15.30;;;12.45;;
5758;SDS011;2904;48.788;9.196;2022-09-01T07:48:20;16.17;;;12.43;;
5758;SDS011;2904;48.788;9.196;2022-09-01T07:50:48;14.60;;;11.75;;
5758;SDS011;2904;48.788;9.196;2022-09-01T07:53:18;17.05;;;12.18;;
5758;SDS011;2904;48.788;9.196;2022-09-01T07:55:50;13.93;;;11.77;;
5758;SDS011;2904;48.788;9.196;2022-09-01T07:58:22;13.73;;;11.60;;
5758;SDS011;2904;48.788;9.196;2022-09-01T08:00:49;22.83;;;13.20;;
5758;SDS011;2904;48.788;9.196;2022-09-01T08:03:19;13.38;;;10.80;;
5758;SDS011;2904;48.788;9.196;2022-09-01T08:05:46;15.82;;;11.18;;
5758;SDS011;2904;48.788;9.196;2022-09-01T08:08:15;15.20;;;11.07;;
5758;SDS011;2904;48.788;9.196;2022-09-01T08:10:41;13.48;;;9.15;;
5758;SDS011;2904;48.788;9.196;2022-09-01T08:13:07;12.45;;;9.27;;
5758;SDS011;2904;48.788;9.196;2022-09-01T08:15:34;10.35;;;8.65;;
5758;SDS011;2904;48.788;9.196;2022-09-01T08:18:02;10.90;;;8.68;;
5758;SDS011;2904;48.788;9.196;2022-09-01T08:20:27;10.68;;;9.00;;
5758;SDS011;2904;48.788;9.196;2022-09-01T08:22:54;12.25;;;8.63;;
5758;SDS011;2904;48.788;9.196;2022-09-01T08:25:20;12.02;;;8.32;;
5758;SDS011;2904;48.788;9.196;2022-09-01T08:27:47;11.12;;;8.60;;
5758;SDS011;2904;48.788;9.196;2022-09-01T08:30:12;11.82;;;8.82;;
5758;SDS011;2904;48.788;9.196;2022-09-01T08:32:38;11.10;;;8.95;;
5758;SDS011;2904;48.788;9.196;2022-09-01T08:35:10;8.73;;;7.62;;
5758;SDS011;2904;48.788;9.196;2022-09-01T08:37:37;10.55;;;8.43;;
5758;SDS011;2904;48.788;9.196;2022-09-01T08:40:07;8.90;;;7.75;;
5758;SDS011;2904;48.788;9.196;2022-09-01T08:50:07;7.32;;;6.22;;
5758;SDS011;2904;48.788;9.196;2022-09-01T08:52:41;7.37;;;6.47;;
5758;SDS011;2904;48.788;9.196;2022-09-01T08:58:05;7.87;;;6.35;;
5758;SDS011;2904;48.788;9.196;2022-09-01T09:00:37;9.10;;;7.57;;
5758;SDS011;2904;48.788;9.196;2022-09-01T09:07:33;9.23;;;6.90;;
5758;SDS011;2904;48.788;9.196;2022-09-01T09:19:27;9.55;;;7.25;;
5758;SDS011;2904;48.788;9.196;2022-09-01T09:22:03;8.05;;;6.87;;
5758;SDS011;2904;48.788;9.196;2022-09-01T09:24:33;11.25;;;7.20;;
5758;SDS011;2904;48.788;9.196;2022-09-01T09:27:25;8.40;;;6.53;;
5758;SDS011;2904;48.788;9.196;2022-09-01T09:30:04;7.78;;;6.80;;
5758;SDS011;2904;48.788;9.196;2022-09-01T09:32:54;8.68;;;6.97;;
5758;SDS011;2904;48.788;9.196;2022-09-01T09:35:39;8.90;;;6.72;;
5758;SDS011;2904;48.788;9.196;2022-09-01T09:41:05;10.77;;;7.22;;
5758;SDS011;2904;48.788;9.196;2022-09-01T09:43:37;11.05;;;7.55;;
5758;SDS011;2904;48.788;9.196;2022-09-01T09:46:21;9.88;;;6.70;;
5758;SDS011;2904;48.788;9.196;2022-09-01T09:49:31;7.00;;;6.30;;
5758;SDS011;2904;48.788;9.196;2022-09-01T09:55:04;7.75;;;6.25;;
5758;SDS011;2904;48.788;9.196;2022-09-01T09:57:47;7.35;;;6.55;;
5758;SDS011;2904;48.788;9.196;2022-09-01T10:00:33;8.02;;;6.43;;
5758;SDS011;2904;48.788;9.196;2022-09-01T10:03:00;6.62;;;5.40;;
5758;SDS011;2904;48.788;9.196;2022-09-01T10:08:35;8.90;;;6.28;;
5758;SDS011;2904;48.788;9.196;2022-09-01T10:11:10;7.05;;;5.72;;
5758;SDS011;2904;48.788;9.196;2022-09-01T10:13:54;6.65;;;5.95;;
5758;SDS011;2904;48.788;9.196;2022-09-01T10:16:25;9.00;;;5.78;;
5758;SDS011;2904;48.788;9.196;2022-09-01T10:18:55;6.95;;;5.20;;
5758;SDS011;2904;48.788;9.196;2022-09-01T10:21:46;6.78;;;5.40;;
5758;SDS011;2904;48.788;9.196;2022-09-01T10:24:15;7.43;;;5.30;;
5758;SDS011;2904;48.788;9.196;2022-09-01T10:26:44;6.68;;;5.70;;
5758;SDS011;2904;48.788;9.196;2022-09-01T10:29:14;9.45;;;5.30;;
5758;SDS011;2904;48.788;9.196;2022-09-01T10:31:57;5.90;;;4.80;;
5758;SDS011;2904;48.788;9.196;2022-09-01T10:34:24;6.47;;;5.03;;
5758;SDS011;2904;48.788;9.196;2022-09-01T10:36:56;4.53;;;4.12;;
5758;SDS011;2904;48.788;9.196;2022-09-01T10:41:50;4.93;;;4.43;;
5758;SDS011;2904;48.788;9.196;2022-09-01T10:44:21;6.15;;;4.03;;
5758;SDS011;2904;48.788;9.196;2022-09-01T10:47:09;4.87;;;4.37;;
5758;SDS011;2904;48.788;9.196;2022-09-01T10:53:03;4.93;;;4.40;;
5758;SDS011;2904;48.788;9.196;2022-09-01T10:55:31;4.22;;;3.85;;
5758;SDS011;2904;48.788;9.196;2022-09-01T10:58:07;6.20;;;3.97;;
5758;SDS011;2904;48.788;9.196;2022-09-01T11:03:38;5.05;;;4.30;;
5758;SDS011;2904;48.788;9.196;2022-09-01T11:06:31;4.28;;;3.87;;
5758;SDS011;2904;48.788;9.196;2022-09-01T11:10:42;12.57;;;7.45;;
5758;SDS011;2904;48.788;9.196;2022-09-01T11:19:37;14.65;;;10.68;;
5758;SDS011;2904;48.788;9.196;2022-09-01T11:22:18;4.90;;;4.37;;
5758;SDS011;2904;48.788;9.196;2022-09-01T11:25:10;5.87;;;4.37;;
5758;SDS011;2904;48.788;9.196;2022-09-01T11:29:07;4.93;;;4.22;;
5758;SDS011;2904;48.788;9.196;2022-09-01T11:31:39;5.50;;;4.45;;
5758;SDS011;2904;48.788;9.196;2022-09-01T11:36:52;4.30;;;3.90;;
5758;SDS011;2904;48.788;9.196;2022-09-01T11:39:36;5.90;;;3.85;;
5758;SDS011;2904;48.788;9.196;2022-09-01T11:42:16;4.72;;;3.75;;
5758;SDS011;2904;48.788;9.196;2022-09-01T11:44:55;5.05;;;3.78;;
5758;SDS011;2904;48.788;9.196;2022-09-01T11:47:34;4.72;;;3.90;;
5758;SDS011;2904;48.788;9.196;2022-09-01T11:50:29;3.83;;;3.50;;
5758;SDS011;2904;48.788;9.196;2022-09-01T11:53:01;6.37;;;3.90;;
5758;SDS011;2904;48.788;9.196;2022-09-01T11:55:40;4.62;;;3.60;;
5758;SDS011;2904;48.788;9.196;2022-09-01T11:58:31;4.37;;;3.58;;
5758;SDS011;2904;48.788;9.196;2022-09-01T12:04:30;4.45;;;4.03;;
5758;SDS011;2904;48.788;9.196;2022-09-01T12:07:04;5.85;;;3.60;;
5758;SDS011;2904;48.788;9.196;2022-09-01T12:09:36;4.68;;;3.47;;
5758;SDS011;2904;48.788;9.196;2022-09-01T12:12:05;5.53;;;4.18;;
5758;SDS011;2904;48.788;9.196;2022-09-01T12:14:32;12.32;;;6.80;;
5758;SDS011;2904;48.788;9.196;2022-09-01T12:16:59;5.95;;;3.95;;
5758;SDS011;2904;48.788;9.196;2022-09-01T12:19:29;4.53;;;4.12;;
5758;SDS011;2904;48.788;9.196;2022-09-01T12:21:58;4.93;;;3.85;;
5758;SDS011;2904;48.788;9.196;2022-09-01T12:24:34;3.92;;;3.60;;
5758;SDS011;2904;48.788;9.196;2022-09-01T12:27:01;4.30;;;3.90;;
5758;SDS011;2904;48.788;9.196;2022-09-01T12:29:27;4.78;;;3.85;;
5758;SDS011;2904;48.788;9.196;2022-09-01T12:31:56;5.70;;;3.65;;
5758;SDS011;2904;48.788;9.196;2022-09-01T12:34:34;3.92;;;3.42;;
5758;SDS011;2904;48.788;9.196;2022-09-01T12:37:05;3.95;;;3.55;;
5758;SDS011;2904;48.788;9.196;2022-09-01T12:39:38;4.68;;;3.67;;
5758;SDS011;2904;48.788;9.196;2022-09-01T12:46:44;5.40;;;4.00;;
5758;SDS011;2904;48.788;9.196;2022-09-01T12:49:19;5.72;;;4.85;;
5758;SDS011;2904;48.788;9.196;2022-09-01T12:52:09;3.60;;;3.15;;
5758;SDS011;2904;48.788;9.196;2022-09-01T12:54:51;3.47;;;3.17;;
5758;SDS011;2904;48.788;9.196;2022-09-01T12:58:40;5.78;;;3.37;;
5758;SDS011;2904;48.788;9.196;2022-09-01T13:01:21;3.50;;;3.20;;
5758;SDS011;2904;48.788;9.196;2022-09-01T13:09:55;3.60;;;3.00;;
5758;SDS011;2904;48.788;9.196;2022-09-01T13:12:23;3.50;;;3.20;;
5758;SDS011;2904;48.788;9.196;2022-09-01T13:14:53;4.45;;;3.40;;
5758;SDS011;2904;48.788;9.196;2022-09-01T13:17:20;3.83;;;3.53;;
5758;SDS011;2904;48.788;9.196;2022-09-01T13:19:48;4.47;;;3.70;;
5758;SDS011;2904;48.788;9.196;2022-09-01T13:22:15;4.10;;;3.80;;
5758;SDS011;2904;48.788;9.196;2022-09-01T13:24:43;4.05;;;3.58;;
5758;SDS011;2904;48.788;9.196;2022-09-01T13:27:10;4.43;;;3.72;;
5758;SDS011;2904;48.788;9.196;2022-09-01T13:29:39;3.87;;;3.58;;
5758;SDS011;2904;48.788;9.196;2022-09-01T13:32:05;3.83;;;3.50;;
5758;SDS011;2904;48.788;9.196;2022-09-01T13:34:31;4.62;;;3.45;;
5758;SDS011;2904;48.788;9.196;2022-09-01T13:36:57;4.57;;;3.40;;
5758;SDS011;2904;48.788;9.196;2022-09-01T13:39:22;3.83;;;3.33;;
5758;SDS011;2904;48.788;9.196;2022-09-01T13:41:48;19.52;;;13.18;;
5758;SDS011;2904;48.788;9.196;2022-09-01T13:44:14;4.25;;;3.85;;
5758;SDS011;2904;48.788;9.196;2022-09-01T13:46:40;8.05;;;5.00;;
5758;SDS011;2904;48.788;9.196;2022-09-01T13:49:07;7.12;;;4.93;;
5758;SDS011;2904;48.788;9.196;2022-09-01T13:51:33;4.20;;;3.80;;
5758;SDS011;2904;48.788;9.196;2022-09-01T13:54:01;16.92;;;13.65;;
5758;SDS011;2904;48.788;9.196;2022-09-01T13:56:26;5.97;;;3.83;;
5758;SDS011;2904;48.788;9.196;2022-09-01T13:58:52;3.35;;;3.08;;
5758;SDS011;2904;48.788;9.196;2022-09-01T14:01:17;3.37;;;3.08;;
5758;SDS011;2904;48.788;9.196;2022-09-01T14:03:43;3.58;;;3.28;;
5758;SDS011;2904;48.788;9.196;2022-09-01T14:06:09;6.28;;;3.10;;
5758;SDS011;2904;48.788;9.196;2022-09-01T14:08:35;4.47;;;3.60;;
5758;SDS011;2904;48.788;9.196;2022-09-01T14:11:00;6.97;;;3.40;;
5758;SDS011;2904;48.788;9.196;2022-09-01T14:13:26;3.85;;;3.35;;
5758;SDS011;2904;48.788;9.196;2022-09-01T14:15:52;3.80;;;3.50;;
5758;SDS011;2904;48.788;9.196;2022-09-01T14:18:18;4.20;;;3.40;;
5758;SDS011;2904;48.788;9.196;2022-09-01T14:20:49;3.20;;;3.00;;
5758;SDS011;2904;48.788;9.196;2022-09-01T14:23:15;4.22;;;3.50;;
5758;SDS011;2904;48.788;9.196;2022-09-01T14:25:44;3.47;;;3.17;;
5758;SDS011;2904;48.788;9.196;2022-09-01T14:28:12;5.10;;;3.15;;
5758;SDS011;2904;48.788;9.196;2022-09-01T14:30:38;3.42;;;3.12;;
5758;SDS011;2904;48.788;9.196;2022-09-01T14:33:07;2.87;;;2.62;;
5758;SDS011;2904;48.788;9.196;2022-09-01T14:35:36;3.17;;;2.87;;
5758;SDS011;2904;48.788;9.196;2022-09-01T14:38:05;3.08;;;2.80;;
5758;SDS011;2904;48.788;9.196;2022-09-01T14:40:33;2.90;;;2.60;;
5758;SDS011;2904;48.788;9.196;2022-09-01T14:43:03;3.30;;;2.78;;
5758;SDS011;2904;48.788;9.196;2022-09-01T14:45:34;4.80;;;2.92;;
5758;SDS011;2904;48.788;9.196;2022-09-01T14:48:03;2.92;;;2.72;;
5758;SDS011;2904;48.788;9.196;2022-09-01T14:50:30;3.60;;;3.00;;
5758;SDS011;2904;48.788;9.196;2022-09-01T14:52:56;3.33;;;3.03;;
5758;SDS011;2904;48.788;9.196;2022-09-01T14:55:23;5.90;;;4.37;;
5758;SDS011;2904;48.788;9.196;2022-09-01T14:57:50;2.65;;;2.37;;
5758;SDS011;2904;48.788;9.196;2022-09-01T15:00:17;5.05;;;2.42;;
5758;SDS011;2904;48.788;9.196;2022-09-01T15:02:43;2.78;;;2.58;;
5758;SDS011;2904;48.788;9.196;2022-09-01T15:05:10;4.28;;;2.62;;
5758;SDS011;2904;48.788;9.196;2022-09-01T15:07:37;2.90;;;2.60;;
5758;SDS011;2904;48.788;9.196;2022-09-01T15:10:03;3.00;;;2.62;;
5758;SDS011;2904;48.788;9.196;2022-09-01T15:12:32;2.72;;;2.47;;
5758;SDS011;2904;48.788;9.196;2022-09-01T15:14:58;5.15;;;4.00;;
5758;SDS011;2904;48.788;9.196;2022-09-01T15:17:24;2.70;;;2.50;;
5758;SDS011;2904;48.788;9.196;2022-09-01T15:19:50;3.50;;;3.20;;
5758;SDS011;2904;48.788;9.196;2022-09-01T15:22:16;8.85;;;6.62;;
5758;SDS011;2904;48.788;9.196;2022-09-01T15:24:42;4.35;;;3.95;;
5758;SDS011;2904;48.788;9.196;2022-09-01T15:27:08;3.15;;;2.85;;
5758;SDS011;2904;48.788;9.196;2022-09-01T15:29:35;3.12;;;2.50;;
5758;SDS011;2904;48.788;9.196;2022-09-01T15:32:13;4.53;;;2.42;;
5758;SDS011;2904;48.788;9.196;2022-09-01T15:34:42;2.75;;;2.47;;
5758;SDS011;2904;48.788;9.196;2022-09-01T15:37:08;3.45;;;2.60;;
5758;SDS011;2904;48.788;9.196;2022-09-01T15:39:33;2.37;;;2.17;;
5758;SDS011;2904;48.788;9.196;2022-09-01T15:42:00;2.50;;;2.30;;
5758;SDS011;2904;48.788;9.196;2022-09-01T15:44:27;3.60;;;2.47;;
5758;SDS011;2904;48.788;9.196;2022-09-01T15:46:53;2.60;;;2.40;;
5758;SDS011;2904;48.788;9.196;2022-09-01T15:49:19;2.87;;;2.67;;
5758;SDS011;2904;48.788;9.196;2022-09-01T15:51:44;7.57;;;4.65;;
5758;SDS011;2904;48.788;9.196;2022-09-01T15:54:11;4.82;;;2.50;;
5758;SDS011;2904;48.788;9.196;2022-09-01T15:56:42;2.90;;;2.30;;
5758;SDS011;2904;48.788;9.196;2022-09-01T15:59:09;2.50;;;2.30;;
5758;SDS011;2904;48.788;9.196;2022-09-01T16:01:37;3.65;;;2.22;;
5758;SDS011;2904;48.788;9.196;2022-09-01T16:04:09;2.28;;;2.00;;
5758;SDS011;2904;48.788;9.196;2022-09-01T16:06:36;3.05;;;2.20;;
5758;SDS011;2904;48.788;9.196;2022-09-01T16:09:03;2.70;;;2.50;;
5758;SDS011;2904;48.788;9.196;2022-09-01T16:11:31;5.70;;;2.37;;
5758;SDS011;2904;48.788;9.196;2022-09-01T16:13:57;6.22;;;5.57;;
5758;SDS011;2904;48.788;9.196;2022-09-01T16:16:32;2.37;;;2.20;;
5758;SDS011;2904;48.788;9.196;2022-09-01T16:19:45;2.83;;;2.10;;
5758;SDS011;2904;48.788;9.196;2022-09-01T16:22:36;6.18;;;2.87;;
5758;SDS011;2904;48.788;9.196;2022-09-01T16:26:09;5.75;;;2.50;;
5758;SDS011;2904;48.788;9.196;2022-09-01T16:28:38;3.35;;;2.83;;